createdAt,value
2019-01-26T00:00:49.503Z,100648.84
2019-01-26T00:02:57.185Z,100653.16
2019-01-26T00:05:03.865Z,100652.67
2019-01-26T00:07:10.414Z,100646.63
2019-01-26T00:09:16.636Z,100648.16
2019-01-26T00:11:22.959Z,100643.35
2019-01-26T00:13:29.716Z,100640.66
2019-01-26T00:15:36.394Z,100639.24
2019-01-26T00:17:44.285Z,100639.53
2019-01-26T00:19:50.460Z,100643.25
2019-01-26T00:21:59.743Z,100635.41
2019-01-26T00:24:08.748Z,100638.64
2019-01-26T00:26:16.600Z,100632.60
2019-01-26T00:28:22.771Z,100640.09
2019-01-26T00:30:30.302Z,100638.17
2019-01-26T00:32:40.299Z,100632.96
2019-01-26T00:34:46.654Z,100631.52
2019-01-26T00:36:52.922Z,100622.83
2019-01-26T00:38:59.343Z,100618.90
2019-01-26T00:41:05.731Z,100616.72
2019-01-26T00:43:12.141Z,100615.91
2019-01-26T00:45:19.700Z,100609.45
2019-01-26T00:47:27.631Z,100608.63
2019-01-26T00:49:33.748Z,100601.03
2019-01-26T00:51:41.451Z,100601.11
2019-01-26T00:53:48.488Z,100600.33
2019-01-26T00:55:54.802Z,100602.06
2019-01-26T00:58:00.934Z,100598.66
2019-01-26T01:00:22.235Z,100596.64
2019-01-26T01:02:28.298Z,100591.59
2019-01-26T01:04:34.518Z,100588.68
2019-01-26T01:06:40.938Z,100586.28
2019-01-26T01:08:47.296Z,100586.30
2019-01-26T01:10:57.154Z,100583.79
2019-01-26T01:13:03.080Z,100583.41
2019-01-26T01:15:14.468Z,100583.46
2019-01-26T01:17:22.454Z,100580.48
2019-01-26T01:19:30.217Z,100583.53
2019-01-26T01:21:37.562Z,100580.48
2019-01-26T01:23:44.109Z,100577.95
2019-01-26T01:25:50.489Z,100570.24
2019-01-26T01:27:57.024Z,100563.04
2019-01-26T01:30:03.108Z,100568.19
2019-01-26T01:32:11.501Z,100563.06
2019-01-26T01:34:19.510Z,100566.96
2019-01-26T01:36:25.890Z,100560.07
2019-01-26T01:38:32.179Z,100555.77
2019-01-26T01:40:40.259Z,100554.89
2019-01-26T01:42:49.112Z,100554.07
2019-01-26T01:44:56.851Z,100550.71
2019-01-26T01:47:03.634Z,100544.30
2019-01-26T01:49:10.119Z,100542.20
2019-01-26T01:51:16.570Z,100534.61
2019-01-26T01:53:22.811Z,100532.03
2019-01-26T01:55:29.651Z,100531.21
2019-01-26T01:57:36.218Z,100530.77
2019-01-26T01:59:43.847Z,100525.63
2019-01-26T02:01:50.116Z,100528.19
2019-01-26T02:03:56.371Z,100523.52
2019-01-26T02:06:03.360Z,100526.86
2019-01-26T02:08:16.270Z,100523.95
2019-01-26T02:10:24.221Z,100518.87
2019-01-26T02:12:30.438Z,100514.17
2019-01-26T02:14:38.520Z,100511.21
2019-01-26T02:16:50.049Z,100505.67
2019-01-26T02:18:53.924Z,100502.30
2019-01-26T02:21:01.926Z,100492.87
2019-01-26T02:23:08.224Z,100486.94
2019-01-26T02:25:14.694Z,100486.12
2019-01-26T02:27:21.603Z,100489.00
2019-01-26T02:29:27.663Z,100490.30
2019-01-26T02:31:34.246Z,100478.41
2019-01-26T02:33:40.711Z,100472.37
2019-01-26T02:35:46.914Z,100467.70
2019-01-26T02:37:53.247Z,100455.17
2019-01-26T02:40:00.848Z,100462.05
2019-01-26T02:42:08.492Z,100457.33
2019-01-26T02:44:17.070Z,100453.08
2019-01-26T02:46:23.182Z,100442.02
2019-01-26T02:48:29.600Z,100439.03
2019-01-26T02:50:36.527Z,100435.19
2019-01-26T02:52:43.970Z,100435.62
2019-01-26T02:54:50.052Z,100431.02
2019-01-26T02:56:56.127Z,100420.82
2019-01-26T02:59:03.378Z,100421.59
2019-01-26T03:01:09.635Z,100430.66
2019-01-26T03:03:16.892Z,100433.97
2019-01-26T03:05:23.583Z,100425.01
2019-01-26T03:07:31.291Z,100426.65
2019-01-26T03:09:37.983Z,100414.77
2019-01-26T03:11:45.083Z,100412.27
2019-01-26T03:13:52.851Z,100413.13
2019-01-26T03:16:02.072Z,100414.00
2019-01-26T03:18:08.341Z,100404.66
2019-01-26T03:20:16.809Z,100409.37
2019-01-26T03:22:22.789Z,100404.66
2019-01-26T03:24:29.567Z,100408.16
2019-01-26T03:26:37.477Z,100400.51
2019-01-26T03:28:43.742Z,100397.08
2019-01-26T03:30:51.993Z,100395.27
2019-01-26T03:32:57.990Z,100392.77
2019-01-26T03:37:39.943Z,100390.63
2019-01-26T03:42:30.954Z,100385.02
2019-01-26T03:44:37.296Z,100375.24
2019-01-26T03:46:43.762Z,100373.55
2019-01-26T03:48:49.913Z,100372.33
2019-01-26T03:50:56.231Z,100362.95
2019-01-26T03:53:02.321Z,100362.13
2019-01-26T03:55:12.583Z,100363.82
2019-01-26T03:57:20.253Z,100353.98
2019-01-26T03:59:28.084Z,100357.89
2019-01-26T04:01:34.446Z,100354.09
2019-01-26T04:03:40.498Z,100353.56
2019-01-26T04:05:48.146Z,100348.44
2019-01-26T04:07:54.456Z,100339.92
2019-01-26T04:10:00.606Z,100334.39
2019-01-26T04:12:07.034Z,100331.02
2019-01-26T04:14:13.132Z,100332.30
2019-01-26T04:16:20.050Z,100329.34
2019-01-26T04:18:26.247Z,100320.78
2019-01-26T04:20:32.885Z,100321.28
2019-01-26T04:22:40.368Z,100317.79
2019-01-26T04:24:47.229Z,100316.58
2019-01-26T04:26:55.573Z,100307.55
2019-01-26T04:29:02.131Z,100307.12
2019-01-26T04:31:08.574Z,100302.88
2019-01-26T04:33:16.969Z,100299.48
2019-01-26T04:35:23.143Z,100293.50
2019-01-26T04:37:29.646Z,100285.81
2019-01-26T04:39:36.262Z,100278.53
2019-01-26T04:41:42.329Z,100270.08
2019-01-26T04:43:48.369Z,100269.25
2019-01-26T04:45:54.891Z,100263.67
2019-01-26T04:48:01.363Z,100267.55
2019-01-26T04:50:11.856Z,100265.41
2019-01-26T04:52:18.320Z,100262.84
2019-01-26T04:54:26.075Z,100259.87
2019-01-26T04:56:32.729Z,100260.44
2019-01-26T04:58:39.249Z,100252.19
2019-01-26T05:00:45.773Z,100246.73
2019-01-26T05:02:52.510Z,100253.14
2019-01-26T05:04:59.517Z,100252.27
2019-01-26T05:07:05.710Z,100255.94
2019-01-26T05:09:11.811Z,100248.65
2019-01-26T05:11:18.456Z,100252.36
2019-01-26T05:13:26.180Z,100242.17
2019-01-26T05:15:32.469Z,100240.92
2019-01-26T05:17:39.523Z,100233.55
2019-01-26T05:19:46.054Z,100232.48
2019-01-26T05:21:52.345Z,100226.85
2019-01-26T05:23:58.651Z,100223.66
2019-01-26T05:26:05.018Z,100224.31
2019-01-26T05:28:12.162Z,100219.68
2019-01-26T05:30:25.625Z,100222.94
2019-01-26T05:32:31.783Z,100224.59
2019-01-26T05:34:39.883Z,100231.83
2019-01-26T05:36:47.258Z,100226.28
2019-01-26T05:38:53.635Z,100223.77
2019-01-26T05:41:00.012Z,100222.66
2019-01-26T05:43:06.055Z,100224.31
2019-01-26T05:45:18.841Z,100226.55
2019-01-26T05:47:26.755Z,100221.38
2019-01-26T05:49:33.126Z,100216.23
2019-01-26T05:51:41.756Z,100219.18
2019-01-26T05:53:48.772Z,100219.27
2019-01-26T05:55:55.199Z,100219.22
2019-01-26T05:58:01.329Z,100216.23
2019-01-26T06:00:13.348Z,100214.67
2019-01-26T06:02:19.806Z,100213.80
2019-01-26T06:04:26.879Z,100210.98
2019-01-26T06:06:33.375Z,100210.52
2019-01-26T06:08:44.303Z,100206.95
2019-01-26T06:10:55.820Z,100210.02
2019-01-26T06:13:02.922Z,100201.05
2019-01-26T06:15:12.206Z,100202.64
2019-01-26T06:17:18.773Z,100206.86
2019-01-26T06:19:25.117Z,100202.55
2019-01-26T06:21:32.091Z,100200.48
2019-01-26T06:23:38.962Z,100195.95
2019-01-26T06:25:45.039Z,100190.77
2019-01-26T06:27:52.992Z,100190.48
2019-01-26T06:30:00.012Z,100188.42
2019-01-26T06:32:06.343Z,100185.52
2019-01-26T06:34:13.263Z,100185.86
2019-01-26T06:36:19.463Z,100186.64
2019-01-26T06:38:25.694Z,100182.80
2019-01-26T06:40:32.146Z,100183.03
2019-01-26T06:42:38.271Z,100181.16
2019-01-26T06:44:46.120Z,100181.25
2019-01-26T06:46:52.370Z,100178.36
2019-01-26T06:48:59.227Z,100184.91
2019-01-26T06:51:06.198Z,100172.22
2019-01-26T06:53:12.417Z,100162.88
2019-01-26T06:55:19.455Z,100156.23
2019-01-26T06:57:25.491Z,100161.45
2019-01-26T06:59:31.571Z,100157.16
2019-01-26T07:01:40.994Z,100152.94
2019-01-26T07:03:48.851Z,100155.50
2019-01-26T07:05:59.853Z,100148.72
2019-01-26T07:08:06.332Z,100147.06
2019-01-26T07:10:12.632Z,100143.96
2019-01-26T07:12:19.968Z,100138.78
2019-01-26T07:14:26.231Z,100130.91
2019-01-26T07:16:32.903Z,100130.91
2019-01-26T07:18:39.037Z,100138.59
2019-01-26T07:20:46.855Z,100136.08
2019-01-26T07:22:53.001Z,100137.04
2019-01-26T07:25:00.995Z,100139.98
2019-01-26T07:27:07.412Z,100137.36
2019-01-26T07:29:13.561Z,100125.70
2019-01-26T07:31:19.901Z,100129.50
2019-01-26T07:33:25.946Z,100126.02
2019-01-26T07:35:32.311Z,100123.36
2019-01-26T07:37:40.505Z,100125.37
2019-01-26T07:39:48.272Z,100118.91
2019-01-26T07:41:54.700Z,100115.06
2019-01-26T07:44:00.942Z,100117.63
2019-01-26T07:46:07.200Z,100116.84
2019-01-26T07:48:16.920Z,100123.36
2019-01-26T07:50:26.482Z,100117.05
2019-01-26T07:52:32.922Z,100115.76
2019-01-26T07:54:40.954Z,100116.08
2019-01-26T07:56:47.321Z,100110.12
2019-01-26T07:58:54.401Z,100107.11
2019-01-26T08:01:01.461Z,100107.56
2019-01-26T08:03:07.620Z,100110.03
2019-01-26T08:05:13.961Z,100111.27
2019-01-26T08:07:20.548Z,100098.86
2019-01-26T08:09:28.251Z,100102.70
2019-01-26T08:11:34.422Z,100097.91
2019-01-26T08:13:41.976Z,100097.12
2019-01-26T08:15:49.692Z,100093.65
2019-01-26T08:17:56.764Z,100094.09
2019-01-26T08:20:03.581Z,100094.46
2019-01-26T08:22:09.785Z,100091.40
2019-01-26T08:24:15.955Z,100092.68
2019-01-26T08:26:23.171Z,100094.37
2019-01-26T08:28:29.294Z,100092.73
2019-01-26T08:30:35.610Z,100093.60
2019-01-26T08:32:42.424Z,100091.08
2019-01-26T08:34:48.776Z,100091.21
2019-01-26T08:36:54.943Z,100080.27
2019-01-26T08:39:02.281Z,100079.08
2019-01-26T08:41:08.597Z,100078.45
2019-01-26T08:43:14.975Z,100067.56
2019-01-26T08:45:21.107Z,100062.69
2019-01-26T08:47:27.431Z,100072.23
2019-01-26T08:49:33.702Z,100067.69
2019-01-26T08:51:40.508Z,100068.66
2019-01-26T08:53:47.842Z,100074.34
2019-01-26T08:55:54.256Z,100074.84
2019-01-26T08:58:03.029Z,100082.65
2019-01-26T09:00:28.590Z,100077.18
2019-01-26T09:02:46.020Z,100081.21
2019-01-26T09:04:55.768Z,100077.35
2019-01-26T09:07:02.948Z,100071.48
2019-01-26T09:09:11.591Z,100071.17
2019-01-26T09:11:17.711Z,100068.63
2019-01-26T09:13:23.990Z,100060.77
2019-01-26T09:15:32.053Z,100063.00
2019-01-26T09:17:38.331Z,100062.67
2019-01-26T09:19:46.023Z,100060.03
2019-01-26T09:21:55.410Z,100053.14
2019-01-26T09:24:02.551Z,100054.91
2019-01-26T09:26:10.693Z,100050.66
2019-01-26T09:28:17.157Z,100050.14
2019-01-26T09:30:23.679Z,100051.89
2019-01-26T09:32:32.257Z,100045.99
2019-01-26T09:34:39.741Z,100037.48
2019-01-26T09:36:46.150Z,100040.56
2019-01-26T09:38:52.187Z,100035.09
2019-01-26T09:40:58.618Z,100037.79
2019-01-26T09:43:05.046Z,100036.92
2019-01-26T09:45:20.611Z,100039.45
2019-01-26T09:47:26.761Z,100029.98
2019-01-26T09:49:33.140Z,100038.13
2019-01-26T09:51:42.671Z,100045.06
2019-01-26T09:53:49.281Z,100041.20
2019-01-26T09:55:57.321Z,100043.69
2019-01-26T09:58:03.571Z,100042.33
2019-01-26T10:00:26.340Z,100040.41
2019-01-26T10:02:33.721Z,100033.19
2019-01-26T10:04:40.557Z,100026.84
2019-01-26T10:06:46.998Z,100017.51
2019-01-26T10:08:53.320Z,100014.97
2019-01-26T10:11:00.012Z,100022.19
2019-01-26T10:13:06.341Z,100014.85
2019-01-26T10:15:23.471Z,100009.72
2019-01-26T10:17:30.350Z,99999.91
2019-01-26T10:19:37.440Z,100008.09
2019-01-26T10:21:43.901Z,100001.63
2019-01-26T10:23:51.281Z,99996.92
2019-01-26T10:25:57.877Z,99995.61
2019-01-26T10:28:04.581Z,100000.60
2019-01-26T10:30:25.722Z,100000.97
2019-01-26T10:32:32.682Z,99991.55
2019-01-26T10:34:39.049Z,99988.96
2019-01-26T10:36:47.906Z,99980.43
2019-01-26T10:38:55.570Z,99983.52
2019-01-26T10:41:03.381Z,99986.47
2019-01-26T10:43:10.768Z,99975.34
2019-01-26T10:45:19.490Z,99967.25
2019-01-26T10:47:27.730Z,99965.61
2019-01-26T10:49:34.311Z,99963.09
2019-01-26T10:51:40.491Z,99962.67
2019-01-26T10:53:49.530Z,99966.54
2019-01-26T10:55:57.491Z,99964.36
2019-01-26T10:58:05.961Z,99960.98
2019-01-26T11:00:19.961Z,99962.69
2019-01-26T11:02:26.378Z,99960.98
2019-01-26T11:04:32.512Z,99958.00
2019-01-26T11:06:38.690Z,99957.90
2019-01-26T11:08:46.699Z,99958.34
2019-01-26T11:10:53.559Z,99957.56
2019-01-26T11:13:00.103Z,99954.16
2019-01-26T11:15:10.062Z,99945.56
2019-01-26T11:17:16.945Z,99950.75
2019-01-26T11:19:24.026Z,99950.41
2019-01-26T11:21:34.081Z,99944.81
2019-01-26T11:23:41.046Z,99946.56
2019-01-26T11:25:47.095Z,99943.97
2019-01-26T11:27:53.563Z,99941.38
2019-01-26T11:30:00.210Z,99930.63
2019-01-26T11:32:06.626Z,99936.21
2019-01-26T11:34:13.382Z,99927.16
2019-01-26T11:36:20.126Z,99923.61
2019-01-26T11:38:27.486Z,99921.91
2019-01-26T11:40:35.086Z,99925.80
2019-01-26T11:42:41.986Z,99925.30
2019-01-26T11:45:05.852Z,99926.66
2019-01-26T11:47:16.114Z,99918.91
2019-01-26T11:49:23.395Z,99917.66
2019-01-26T11:51:31.195Z,99926.30
2019-01-26T11:53:38.337Z,99921.59
2019-01-26T11:55:46.279Z,99925.06
2019-01-26T11:57:52.731Z,99923.77
2019-01-26T12:00:09.766Z,99919.06
2019-01-26T12:02:18.177Z,99923.35
2019-01-26T12:04:26.177Z,99928.06
2019-01-26T12:06:35.354Z,99919.91
2019-01-26T12:08:41.656Z,99919.47
2019-01-26T12:10:48.143Z,99922.91
2019-01-26T12:12:54.375Z,99918.22
2019-01-26T12:15:00.521Z,99914.33
2019-01-26T12:17:07.315Z,99912.18
2019-01-26T12:19:13.692Z,99915.18
2019-01-26T12:21:26.868Z,99917.31
2019-01-26T12:23:33.443Z,99908.73
2019-01-26T12:25:39.523Z,99910.86
2019-01-26T12:27:45.987Z,99911.29
2019-01-26T12:29:53.363Z,99910.89
2019-01-26T12:32:00.440Z,99908.75
2019-01-26T12:34:06.823Z,99899.28
2019-01-26T12:36:13.318Z,99901.41
2019-01-26T12:38:19.846Z,99891.98
2019-01-26T12:40:28.494Z,99898.87
2019-01-26T12:42:34.934Z,99891.97
2019-01-26T12:44:41.274Z,99898.42
2019-01-26T12:46:47.654Z,99899.27
2019-01-26T12:48:54.340Z,99900.56
2019-01-26T12:51:01.475Z,99896.70
2019-01-26T12:53:08.073Z,99898.88
2019-01-26T12:55:20.096Z,99895.01
2019-01-26T12:57:26.579Z,99886.39
2019-01-26T12:59:32.882Z,99885.11
2019-01-26T13:01:40.695Z,99891.97
2019-01-26T13:03:47.055Z,99890.27
2019-01-26T13:05:53.724Z,99887.26
2019-01-26T13:07:59.900Z,99887.26
2019-01-26T13:10:10.903Z,99890.68
2019-01-26T13:12:17.694Z,99889.41
2019-01-26T13:14:24.973Z,99886.41
2019-01-26T13:16:35.985Z,99879.48
2019-01-26T13:18:43.647Z,99886.37
2019-01-26T13:20:50.086Z,99894.11
2019-01-26T13:22:57.261Z,99889.82
2019-01-26T13:25:08.316Z,99888.52
2019-01-26T13:27:14.949Z,99878.66
2019-01-26T13:29:21.395Z,99886.36
2019-01-26T13:31:28.008Z,99885.95
2019-01-26T13:33:34.443Z,99877.78
2019-01-26T13:35:41.050Z,99880.80
2019-01-26T13:37:47.443Z,99884.66
2019-01-26T13:39:55.277Z,99877.79
2019-01-26T13:42:03.284Z,99878.19
2019-01-26T13:44:20.882Z,99880.36
2019-01-26T13:46:28.004Z,99864.91
2019-01-26T13:48:35.414Z,99861.86
2019-01-26T13:50:43.085Z,99862.30
2019-01-26T13:52:50.279Z,99869.17
2019-01-26T13:54:57.505Z,99871.76
2019-01-26T13:57:04.043Z,99873.88
2019-01-26T13:59:10.326Z,99872.16
2019-01-26T14:01:17.303Z,99875.16
2019-01-26T14:03:23.666Z,99879.03
2019-01-26T14:05:30.242Z,99883.30
2019-01-26T14:07:36.725Z,99894.01
2019-01-26T14:09:46.954Z,99891.82
2019-01-26T14:11:53.648Z,99903.84
2019-01-26T14:14:00.585Z,99908.14
2019-01-26T14:16:07.538Z,99912.86
2019-01-26T14:18:14.251Z,99916.73
2019-01-26T14:20:28.619Z,99918.87
2019-01-26T14:22:34.853Z,99921.44
2019-01-26T14:24:41.512Z,99922.70
2019-01-26T14:26:49.816Z,99923.98
2019-01-26T14:28:56.282Z,99927.38
2019-01-26T14:31:03.030Z,99922.67
2019-01-26T14:33:10.021Z,99926.95
2019-01-26T14:35:18.164Z,99926.08
2019-01-26T14:37:24.611Z,99923.09
2019-01-26T14:39:31.380Z,99921.83
2019-01-26T14:41:38.410Z,99912.40
2019-01-26T14:43:44.870Z,99914.55
2019-01-26T14:45:51.519Z,99906.40
2019-01-26T14:47:58.188Z,99903.39
2019-01-26T14:50:07.370Z,99900.81
2019-01-26T14:52:15.350Z,99899.97
2019-01-26T14:54:22.297Z,99894.79
2019-01-26T14:56:29.191Z,99899.92
2019-01-26T14:58:35.650Z,99901.19
2019-01-26T15:00:42.803Z,99895.61
2019-01-26T15:02:49.370Z,99903.75
2019-01-26T15:04:56.047Z,99902.88
2019-01-26T15:07:04.377Z,99904.61
2019-01-26T15:09:11.261Z,99905.89
2019-01-26T15:11:20.960Z,99906.70
2019-01-26T15:13:27.621Z,99912.23
2019-01-26T15:15:34.558Z,99905.78
2019-01-26T15:17:40.971Z,99900.23
2019-01-26T15:19:47.961Z,99909.25
2019-01-26T15:21:54.508Z,99914.80
2019-01-26T15:24:00.990Z,99914.38
2019-01-26T15:26:07.290Z,99919.94
2019-01-26T15:28:13.710Z,99924.22
2019-01-26T15:30:29.278Z,99920.34
2019-01-26T15:32:36.051Z,99921.19
2019-01-26T15:34:42.421Z,99916.48
2019-01-26T15:36:49.379Z,99907.50
2019-01-26T15:38:56.055Z,99918.23
2019-01-26T15:41:04.366Z,99911.78
2019-01-26T15:43:11.328Z,99915.20
2019-01-26T15:45:22.847Z,99916.92
2019-01-26T15:47:29.721Z,99907.94
2019-01-26T15:49:36.498Z,99917.80
2019-01-26T15:51:43.400Z,99914.80
2019-01-26T15:53:53.113Z,99922.52
2019-01-26T15:56:02.599Z,99922.94
2019-01-26T15:58:12.430Z,99917.34
2019-01-26T16:00:26.381Z,99921.21
2019-01-26T16:02:34.309Z,99922.47
2019-01-26T16:04:43.390Z,99925.48
2019-01-26T16:06:50.157Z,99919.91
2019-01-26T16:08:56.740Z,99925.89
2019-01-26T16:11:03.458Z,99926.75
2019-01-26T16:13:10.050Z,99926.33
2019-01-26T16:15:23.711Z,99927.60
2019-01-26T16:17:30.410Z,99929.34
2019-01-26T16:19:37.501Z,99936.20
2019-01-26T16:21:47.798Z,99937.06
2019-01-26T16:24:03.420Z,99935.34
2019-01-26T16:26:15.584Z,99938.34
2019-01-26T16:28:29.154Z,99933.22
2019-01-26T16:30:39.628Z,99935.81
2019-01-26T16:32:47.442Z,99936.25
2019-01-26T16:34:54.351Z,99942.69
2019-01-26T16:37:01.370Z,99942.69
2019-01-26T16:39:09.780Z,99941.81
2019-01-26T16:41:17.901Z,99944.81
2019-01-26T16:43:27.795Z,99941.81
2019-01-26T16:45:39.002Z,99946.11
2019-01-26T16:47:50.823Z,99945.68
2019-01-26T16:49:58.737Z,99942.27
2019-01-26T16:52:05.531Z,99942.69
2019-01-26T16:54:15.663Z,99946.95
2019-01-26T16:56:28.730Z,99946.05
2019-01-26T16:58:42.931Z,99948.64
2019-01-26T17:00:49.623Z,99949.09
2019-01-26T17:02:56.367Z,99956.81
2019-01-26T17:05:04.317Z,99955.52
2019-01-26T17:07:11.021Z,99956.83
2019-01-26T17:09:20.985Z,99956.81
2019-01-26T17:11:34.261Z,99963.23
2019-01-26T17:13:45.756Z,99962.34
2019-01-26T17:15:53.205Z,99960.22
2019-01-26T17:18:00.406Z,99958.49
2019-01-26T17:20:34.598Z,99950.37
2019-01-26T17:22:37.085Z,99953.80
2019-01-26T17:24:45.168Z,99949.94
2019-01-26T17:26:53.573Z,99950.38
2019-01-26T17:29:00.360Z,99948.65
2019-01-26T17:31:06.887Z,99946.07
2019-01-26T17:33:15.878Z,99949.94
2019-01-26T17:35:27.155Z,99947.80
2019-01-26T17:37:40.193Z,99952.52
2019-01-26T17:39:50.379Z,99946.94
2019-01-26T17:42:04.115Z,99946.54
2019-01-26T17:44:19.633Z,99945.23
2019-01-26T17:46:33.688Z,99952.95
2019-01-26T17:48:50.738Z,99952.51
2019-01-26T17:50:59.931Z,99957.19
2019-01-26T17:53:09.192Z,99957.64
2019-01-26T17:55:15.923Z,99952.47
2019-01-26T17:57:26.015Z,99949.03
2019-01-26T17:59:37.323Z,99949.48
2019-01-26T18:01:51.220Z,99948.18
2019-01-26T18:04:04.255Z,99942.60
2019-01-26T18:06:11.940Z,99947.80
2019-01-26T18:08:18.699Z,99952.06
2019-01-26T18:12:40.502Z,99946.51
2019-01-26T18:14:47.322Z,99939.22
2019-01-26T18:16:54.332Z,99939.63
2019-01-26T18:19:01.540Z,99953.38
2019-01-26T18:21:08.897Z,99953.80
2019-01-26T18:23:17.850Z,99957.22
2019-01-26T18:25:26.281Z,99959.33
2019-01-26T18:27:33.289Z,99962.76
2019-01-26T18:29:40.039Z,99956.31
2019-01-26T18:31:46.910Z,99955.47
2019-01-26T18:33:53.897Z,99953.31
2019-01-26T18:36:01.280Z,99952.03
2019-01-26T18:38:08.057Z,99952.03
2019-01-26T18:40:22.769Z,99951.17
2019-01-26T18:42:29.548Z,99941.73
2019-01-26T18:44:38.400Z,99947.73
2019-01-26T18:46:47.111Z,99943.03
2019-01-26T18:48:54.007Z,99936.18
2019-01-26T18:51:00.920Z,99929.77
2019-01-26T18:53:07.707Z,99921.21
2019-01-26T18:55:14.613Z,99916.91
2019-01-26T18:57:21.305Z,99924.20
2019-01-26T18:59:28.163Z,99922.92
2019-01-26T19:01:34.832Z,99913.92
2019-01-26T19:03:51.705Z,99908.36
2019-01-26T19:06:00.783Z,99907.06
2019-01-26T19:08:08.027Z,99905.77
2019-01-26T19:10:15.403Z,99901.45
2019-01-26T19:12:22.107Z,99908.34
2019-01-26T19:14:29.127Z,99903.59
2019-01-26T19:16:36.542Z,99901.44
2019-01-26T19:18:43.374Z,99910.02
2019-01-26T19:20:50.128Z,99913.44
2019-01-26T19:23:01.878Z,99914.30
2019-01-26T19:25:13.830Z,99916.45
2019-01-26T19:27:22.486Z,99914.75
2019-01-26T19:29:29.402Z,99912.19
2019-01-26T19:31:36.351Z,99916.05
2019-01-26T19:33:44.408Z,99912.61
2019-01-26T19:35:51.648Z,99910.92
2019-01-26T19:37:58.565Z,99910.06
2019-01-26T19:40:14.442Z,99912.63
2019-01-26T19:42:21.494Z,99903.63
2019-01-26T19:44:28.189Z,99907.48
2019-01-26T19:46:35.176Z,99911.80
2019-01-26T19:48:42.214Z,99911.80
2019-01-26T19:50:49.003Z,99913.05
2019-01-26T19:52:56.351Z,99907.91
2019-01-26T19:55:03.043Z,99910.50
2019-01-26T19:57:10.031Z,99907.95
2019-01-26T19:59:17.900Z,99919.09
2019-01-26T20:01:25.665Z,99910.92
2019-01-26T20:03:32.390Z,99909.63
2019-01-26T20:05:39.060Z,99907.06
2019-01-26T20:07:45.954Z,99904.92
2019-01-26T20:09:53.039Z,99907.06
2019-01-26T20:12:00.010Z,99903.23
2019-01-26T20:14:06.892Z,99897.65
2019-01-26T20:16:14.220Z,99901.06
2019-01-26T20:18:22.060Z,99901.92
2019-01-26T20:20:35.904Z,99903.23
2019-01-26T20:22:42.569Z,99900.66
2019-01-26T20:24:49.939Z,99895.92
2019-01-26T20:26:57.782Z,99899.36
2019-01-26T20:29:05.904Z,99900.22
2019-01-26T20:31:13.074Z,99903.64
2019-01-26T20:33:19.878Z,99899.38
2019-01-26T20:35:26.262Z,99904.97
2019-01-26T20:37:33.203Z,99895.52
2019-01-26T20:39:41.935Z,99895.10
2019-01-26T20:41:48.650Z,99890.38
2019-01-26T20:43:55.596Z,99893.81
2019-01-26T20:46:03.105Z,99891.25
2019-01-26T20:48:10.440Z,99891.66
2019-01-26T20:50:17.241Z,99892.93
2019-01-26T20:52:23.990Z,99890.77
2019-01-26T20:54:30.594Z,99894.59
2019-01-26T20:56:37.334Z,99901.44
2019-01-26T20:58:44.705Z,99897.18
2019-01-26T21:00:51.333Z,99890.75
2019-01-26T21:02:58.484Z,99891.64
2019-01-26T21:05:06.329Z,99898.48
2019-01-26T21:07:14.845Z,99897.65
2019-01-26T21:09:22.484Z,99893.78
2019-01-26T21:11:29.173Z,99902.80
2019-01-26T21:13:35.717Z,99907.94
2019-01-26T21:15:43.082Z,99910.09
2019-01-26T21:17:50.799Z,99911.40
2019-01-26T21:19:57.573Z,99916.08
2019-01-26T21:22:04.660Z,99916.95
2019-01-26T21:24:33.410Z,99922.48
2019-01-26T21:26:40.054Z,99916.05
2019-01-26T21:28:47.045Z,99916.05
2019-01-26T21:30:53.884Z,99922.92
2019-01-26T21:33:00.814Z,99916.89
2019-01-26T21:35:13.262Z,99919.47
2019-01-26T21:37:20.021Z,99920.73
2019-01-26T21:39:29.034Z,99922.89
2019-01-26T21:41:36.979Z,99924.15
2019-01-26T21:43:44.288Z,99925.43
2019-01-26T21:45:50.962Z,99930.17
2019-01-26T21:47:57.833Z,99928.92
2019-01-26T21:50:06.334Z,99924.66
2019-01-26T21:52:14.353Z,99927.67
2019-01-26T21:54:21.722Z,99925.97
2019-01-26T21:56:28.293Z,99928.97
2019-01-26T21:58:34.551Z,99919.53
2019-01-26T22:00:41.185Z,99926.40
2019-01-26T22:02:47.424Z,99917.40
2019-01-26T22:04:53.924Z,99916.53
2019-01-26T22:07:00.443Z,99916.49
2019-01-26T22:09:09.370Z,99912.66
2019-01-26T22:13:37.264Z,99909.64
2019-01-26T22:15:43.754Z,99912.67
2019-01-26T22:17:51.773Z,99911.82
2019-01-26T22:20:01.203Z,99904.97
2019-01-26T22:22:09.107Z,99908.40
2019-01-26T22:24:15.685Z,99902.83
2019-01-26T22:26:22.121Z,99903.69
2019-01-26T22:28:28.683Z,99901.95
2019-01-26T22:30:36.340Z,99899.38
2019-01-26T22:32:43.524Z,99896.81
2019-01-26T22:34:53.632Z,99892.98
2019-01-26T22:37:00.533Z,99891.72
2019-01-26T22:39:09.840Z,99881.38
2019-01-26T22:41:17.303Z,99875.80
2019-01-26T22:43:23.737Z,99870.66
2019-01-26T22:45:30.324Z,99873.22
2019-01-26T22:47:37.683Z,99868.52
2019-01-26T22:49:44.122Z,99868.94
2019-01-26T22:51:53.401Z,99869.38
2019-01-26T22:54:00.533Z,99866.34
2019-01-26T22:56:07.966Z,99868.93
2019-01-26T22:58:14.690Z,99859.91
2019-01-26T23:00:53.055Z,99862.50
2019-01-26T23:03:02.075Z,99862.92
2019-01-26T23:05:44.886Z,99862.92
2019-01-26T23:07:52.925Z,99865.05
2019-01-26T23:10:12.093Z,99869.77
2019-01-26T23:12:47.913Z,99868.05
2019-01-26T23:15:13.564Z,99861.64
2019-01-26T23:17:27.403Z,99857.78
2019-01-26T23:19:44.723Z,99855.23
2019-01-26T23:22:15.368Z,99853.52
2019-01-26T23:24:32.690Z,99848.37
2019-01-26T23:27:11.800Z,99848.39
2019-01-26T23:29:44.911Z,99856.53
2019-01-26T23:31:51.563Z,99851.34
2019-01-26T23:33:57.805Z,99855.64
2019-01-26T23:36:04.363Z,99848.79
2019-01-26T23:38:12.090Z,99856.49
2019-01-26T23:40:18.483Z,99852.64
2019-01-26T23:42:24.770Z,99854.77
2019-01-26T23:44:31.054Z,99855.23
2019-01-26T23:46:38.432Z,99855.17
2019-01-26T23:48:44.763Z,99852.20
2019-01-26T23:50:51.115Z,99847.05
2019-01-26T23:52:57.326Z,99848.78
2019-01-26T23:55:03.974Z,99836.34
2019-01-26T23:57:11.914Z,99833.36
2019-01-26T23:59:19.643Z,99834.64
